Time;durP1;ratioP1;P1;durP2;ratioP2;P2;SDS_P1;SDS_P2;PMS_P1;PMS_P2;Temp;Humidity;BMP_temperature;BMP_pressure;BME280_temperature;BME280_humidity;BME280_pressure;Samples;Min_cycle;Max_cycle;Signal;HPM_P1;HPM_P2
2021/12/07 00:02:02;;;;;;;17.10;9.95;;;;;;;0.17;86.80;95188.97;4836007;29;20168;-46
2021/12/07 00:04:30;;;;;;;16.20;9.82;;;;;;;0.16;87.43;95193.50;4824960;29;20103;-46
2021/12/07 00:06:57;;;;;;;18.48;10.40;;;;;;;0.16;87.13;95190.84;4839316;29;20046;-44
2021/12/07 00:09:24;;;;;;;15.38;9.23;;;;;;;0.23;86.81;95193.94;4832094;29;20039;-46
2021/12/07 00:11:52;;;;;;;16.98;10.32;;;;;;;0.10;87.79;95201.81;4826776;29;20481;-44
2021/12/07 00:14:24;;;;;;;15.02;10.15;;;;;;;0.08;87.78;95199.44;4832869;29;20047;-47
2021/12/07 00:16:54;;;;;;;19.35;11.07;;;;;;;0.05;87.87;95196.56;4825118;29;20452;-43
2021/12/07 00:19:21;;;;;;;18.58;10.30;;;;;;;-0.09;88.83;95199.09;4829185;29;20085;-44
2021/12/07 00:21:50;;;;;;;17.33;10.90;;;;;;;-0.10;89.03;95190.34;4825536;29;20663;-42
2021/12/07 00:24:17;;;;;;;17.52;10.65;;;;;;;-0.23;89.51;95191.00;4823804;29;20137;-45
2021/12/07 00:26:44;;;;;;;18.27;10.48;;;;;;;-0.16;89.54;95193.31;4824095;29;20050;-44
2021/12/07 00:29:12;;;;;;;19.05;9.73;;;;;;;-0.01;88.65;95190.50;4824177;29;20050;-43
2021/12/07 00:31:50;;;;;;;19.90;10.70;;;;;;;0.13;88.27;95191.41;4838926;29;20479;-48
2021/12/07 00:36:59;;;;;;;17.40;10.60;;;;;;;0.14;88.59;95178.91;4828111;29;20137;-44
2021/12/07 00:39:26;;;;;;;16.20;9.50;;;;;;;-0.16;89.32;95169.38;4840433;29;20120;-48
2021/12/07 00:41:55;;;;;;;16.95;9.63;;;;;;;-0.23;89.29;95175.03;4841851;29;20095;-42
2021/12/07 00:44:24;;;;;;;16.70;9.90;;;;;;;0.03;88.44;95164.13;4833049;29;20529;-43
2021/12/07 00:46:52;;;;;;;17.08;10.13;;;;;;;0.22;88.23;95168.41;4826403;29;20050;-45
2021/12/07 00:49:20;;;;;;;14.50;9.23;;;;;;;-0.03;88.57;95163.41;4824704;29;20050;-47
2021/12/07 00:51:47;;;;;;;17.10;9.63;;;;;;;-0.12;89.14;95162.44;4829011;29;20424;-45
2021/12/07 00:54:14;;;;;;;15.57;9.50;;;;;;;0.04;87.96;95158.53;4823394;29;20042;-44
2021/12/07 00:56:42;;;;;;;15.88;9.85;;;;;;;0.01;87.82;95156.44;4836587;29;20079;-44
2021/12/07 00:59:09;;;;;;;14.52;9.05;;;;;;;-0.06;88.56;95164.75;4832797;29;20053;-42
2021/12/07 01:01:37;;;;;;;17.88;9.23;;;;;;;-0.24;88.90;95155.63;4822772;29;20099;-46
2021/12/07 01:04:06;;;;;;;16.77;9.32;;;;;;;-0.05;88.03;95153.03;4840682;29;20050;-44
2021/12/07 01:07:39;;;;;;;13.73;8.82;;;;;;;0.06;87.85;95151.03;4826973;29;20192;-42
2021/12/07 01:09:31;;;;;;;15.50;8.60;;;;;;;0.17;87.28;95155.19;4843096;29;20062;-47
2021/12/07 01:24:40;;;;;;;15.70;8.48;;;;;;;-0.10;87.99;95152.28;4828340;29;20157;-44
2021/12/07 01:25:56;;;;;;;10.73;7.05;;;;;;;-0.12;87.24;95149.16;4831995;29;20102;-43
2021/12/07 01:28:38;;;;;;;10.85;6.72;;;;;;;-0.03;86.75;95142.94;4826958;29;20529;-43
2021/12/07 02:00:17;;;;;;;8.35;4.85;;;;;;;0.35;83.52;95137.66;4831891;29;20141;-46
2021/12/07 02:02:45;;;;;;;7.15;4.85;;;;;;;0.08;84.03;95129.50;4831608;29;20466;-47
2021/12/07 02:05:14;;;;;;;8.40;4.38;;;;;;;0.03;84.13;95130.34;4832359;29;20098;-43
2021/12/07 02:07:41;;;;;;;7.55;4.50;;;;;;;0.03;83.68;95114.38;4822898;29;20080;-45
2021/12/07 02:10:15;;;;;;;7.78;4.32;;;;;;;0.21;83.72;95126.91;4816469;29;20360;-44
2021/12/07 02:12:48;;;;;;;7.97;4.78;;;;;;;0.17;83.13;95133.91;4839511;29;20081;-43
2021/12/07 02:15:19;;;;;;;6.55;3.80;;;;;;;0.31;82.79;95125.22;4826097;29;20424;-46
2021/12/07 02:17:47;;;;;;;6.28;4.00;;;;;;;0.25;82.45;95116.50;4824227;29;20053;-42
2021/12/07 02:20:16;;;;;;;5.38;3.33;;;;;;;0.18;82.26;95108.88;4825558;29;20099;-44
2021/12/07 02:22:44;;;;;;;7.45;4.18;;;;;;;0.11;82.85;95121.75;4822847;29;20516;-48
2021/12/07 02:25:15;;;;;;;8.20;3.75;;;;;;;0.32;81.90;95122.25;4806013;29;20054;-46
2021/12/07 02:27:43;;;;;;;5.75;3.30;;;;;;;0.35;81.34;95118.22;4823191;29;20652;-46
2021/12/07 02:30:13;;;;;;;6.90;3.17;;;;;;;0.42;81.25;95108.84;4838269;29;20132;-42
2021/12/07 02:32:41;;;;;;;5.05;2.95;;;;;;;0.14;81.95;95107.88;4839512;29;20132;-43
2021/12/07 02:35:15;;;;;;;4.70;2.88;;;;;;;0.06;82.07;95097.06;4834267;29;20053;-44
2021/12/07 02:37:42;;;;;;;5.47;3.00;;;;;;;0.19;81.77;95097.16;4829416;29;20437;-43
2021/12/07 02:40:09;;;;;;;6.47;2.85;;;;;;;0.01;82.07;95089.97;4827222;29;20121;-42
2021/12/07 02:42:39;;;;;;;5.43;3.00;;;;;;;0.22;81.97;95093.13;4822851;29;20102;-45
2021/12/07 02:45:06;;;;;;;5.47;2.88;;;;;;;0.07;81.79;95090.69;4833976;29;20061;-44
2021/12/07 02:47:35;;;;;;;6.65;2.97;;;;;;;-0.03;81.70;95099.59;4832618;29;20053;-45
2021/12/07 02:50:05;;;;;;;5.00;2.60;;;;;;;0.14;81.58;95110.53;4827930;29;20046;-44
2021/12/07 02:52:32;;;;;;;5.10;2.75;;;;;;;-0.07;82.08;95103.88;4825210;29;20106;-46
2021/12/07 02:55:00;;;;;;;6.28;3.15;;;;;;;-0.16;82.62;95094.94;4811517;29;20137;-43
2021/12/07 02:57:30;;;;;;;5.43;3.10;;;;;;;-0.17;82.61;95096.03;4838568;29;20046;-42
2021/12/07 03:00:09;;;;;;;5.30;2.88;;;;;;;-0.01;82.45;95097.41;4841513;29;20099;-43
2021/12/07 03:02:45;;;;;;;4.63;2.70;;;;;;;-0.18;82.73;95094.44;4833452;29;20056;-41
2021/12/07 03:05:39;;;;;;;3.60;2.30;;;;;;;-0.31;83.05;95088.75;4829208;29;20349;-42
2021/12/07 03:27:31;;;;;;;4.75;3.00;;;;;;;-0.31;86.39;95125.94;4830377;29;20042;-41
2021/12/07 03:29:58;;;;;;;6.35;2.75;;;;;;;-0.23;86.88;95124.53;4838572;29;20053;-43
2021/12/07 03:32:25;;;;;;;4.97;2.78;;;;;;;-0.47;88.51;95132.50;4839085;29;20141;-44
2021/12/07 03:34:52;;;;;;;5.10;2.53;;;;;;;-0.56;90.23;95126.22;4830326;29;20054;-44
2021/12/07 03:37:19;;;;;;;5.15;3.15;;;;;;;-0.58;91.78;95133.69;4843439;29;20050;-44
2021/12/07 03:39:46;;;;;;;6.30;2.88;;;;;;;-0.72;93.37;95131.66;4839781;29;20046;-42
2021/12/07 03:42:14;;;;;;;5.10;2.63;;;;;;;-0.79;94.12;95133.88;4842152;29;20053;-42
2021/12/07 03:44:41;;;;;;;5.88;3.25;;;;;;;-0.77;95.15;95129.06;4834418;29;20466;-41
2021/12/07 03:47:09;;;;;;;8.63;3.58;;;;;;;-0.78;95.14;95135.47;4813364;29;20050;-42
2021/12/07 03:49:36;;;;;;;4.47;2.58;;;;;;;-0.86;95.68;95116.69;4830147;29;20049;-41
2021/12/07 03:52:03;;;;;;;4.60;2.67;;;;;;;-0.85;96.29;95123.56;4838601;29;20106;-41
2021/12/07 03:54:31;;;;;;;4.60;2.47;;;;;;;-0.87;96.94;95118.56;4827081;29;20409;-43
2021/12/07 03:56:58;;;;;;;4.40;2.45;;;;;;;-0.82;96.97;95123.78;4828193;29;20057;-41
2021/12/07 03:59:25;;;;;;;5.40;2.88;;;;;;;-0.88;97.16;95124.13;4831834;29;20034;-43
2021/12/07 04:01:52;;;;;;;6.00;2.95;;;;;;;-0.81;97.46;95127.28;4828978;29;20054;-43
2021/12/07 04:04:20;;;;;;;3.92;2.35;;;;;;;-0.74;97.42;95131.16;4817830;29;20046;-42
2021/12/07 04:06:47;;;;;;;5.13;2.95;;;;;;;-0.79;97.48;95123.25;4844027;29;20046;-42
2021/12/07 04:09:15;;;;;;;4.28;2.30;;;;;;;-0.74;97.68;95130.38;4825545;29;20056;-44
2021/12/07 04:11:42;;;;;;;4.60;2.70;;;;;;;-0.77;97.83;95121.09;4830520;29;20504;-43
2021/12/07 04:14:09;;;;;;;5.30;2.35;;;;;;;-0.82;98.28;95115.81;4835743;29;20048;-42
2021/12/07 04:16:36;;;;;;;3.97;2.22;;;;;;;-0.87;98.67;95115.09;4826869;29;20103;-42
2021/12/07 04:19:03;;;;;;;4.57;2.15;;;;;;;-0.95;98.87;95114.63;4836046;29;20042;-42
2021/12/07 04:21:30;;;;;;;4.10;2.10;;;;;;;-0.86;99.00;95124.66;4829184;29;20047;-44
2021/12/07 04:23:58;;;;;;;5.20;2.50;;;;;;;-0.80;99.15;95121.66;4839894;29;20457;-47
2021/12/07 04:26:25;;;;;;;3.78;2.10;;;;;;;-0.83;99.39;95119.56;4827016;29;20057;-44
2021/12/07 04:28:52;;;;;;;4.70;2.63;;;;;;;-0.87;99.53;95123.84;4837576;29;20141;-43
2021/12/07 04:31:20;;;;;;;4.90;2.60;;;;;;;-0.90;99.95;95119.09;4838136;29;20078;-46
2021/12/07 04:33:48;;;;;;;4.13;2.53;;;;;;;-0.87;99.89;95123.84;4826898;29;20056;-43
2021/12/07 04:36:15;;;;;;;3.15;1.88;;;;;;;-0.76;99.62;95116.59;4839141;29;20475;-44
2021/12/07 04:38:42;;;;;;;3.53;2.10;;;;;;;-0.81;99.69;95122.75;4826473;29;20145;-44
2021/12/07 04:41:10;;;;;;;4.55;2.30;;;;;;;-0.69;99.33;95124.22;4833796;29;20397;-42
2021/12/07 04:43:39;;;;;;;4.50;2.38;;;;;;;-0.79;100.00;95122.44;4828002;29;20141;-42
2021/12/07 04:46:15;;;;;;;5.72;2.20;;;;;;;-0.77;100.00;95122.97;4828433;29;20060;-43
2021/12/07 04:59:45;;;;;;;3.33;2.10;;;;;;;-0.67;100.00;95135.38;4827757;29;20541;-45
2021/12/07 05:02:12;;;;;;;5.53;2.45;;;;;;;-0.48;100.00;95128.28;4839595;29;20408;-43
2021/12/07 05:04:39;;;;;;;4.10;2.08;;;;;;;-0.48;100.00;95134.38;4832397;29;20393;-45
2021/12/07 05:07:13;;;;;;;3.80;2.30;;;;;;;-0.60;100.00;95133.16;4835890;29;20056;-43
2021/12/07 05:14:38;;;;;;;3.03;1.80;;;;;;;-0.37;100.00;95136.91;4836736;29;20047;-44
2021/12/07 05:17:40;;;;;;;4.03;2.15;;;;;;;-0.27;99.99;95144.78;4841260;29;20132;-44
2021/12/07 05:39:39;;;;;;;2.75;1.58;;;;;;;-0.22;99.99;95187.28;4834394;29;20114;-43
2021/12/07 05:42:06;;;;;;;2.53;1.60;;;;;;;-0.12;99.66;95178.41;4830807;29;20076;-48
2021/12/07 05:44:33;;;;;;;4.75;1.73;;;;;;;-0.13;99.86;95174.13;4835128;29;20114;-42
2021/12/07 05:47:03;;;;;;;3.83;1.90;;;;;;;-0.04;99.29;95185.75;4827854;29;20081;-45
2021/12/07 05:49:30;;;;;;;2.50;1.60;;;;;;;0.04;99.26;95185.13;4827315;29;20495;-44
2021/12/07 05:51:57;;;;;;;2.30;1.50;;;;;;;-0.20;100.00;95194.94;4828645;29;20054;-44
2021/12/07 05:54:24;;;;;;;2.58;1.60;;;;;;;-0.04;99.62;95181.22;4832810;29;20056;-45
2021/12/07 05:56:51;;;;;;;3.28;1.88;;;;;;;-0.18;99.64;95187.50;4825493;29;20133;-44
2021/12/07 05:59:18;;;;;;;3.45;1.60;;;;;;;0.00;99.51;95186.78;4832221;29;20046;-42
2021/12/07 06:01:46;;;;;;;3.88;1.70;;;;;;;-0.04;98.92;95183.88;4826431;29;20521;-43
2021/12/07 06:04:13;;;;;;;2.65;1.40;;;;;;;0.12;98.74;95194.34;4836734;29;20091;-43
2021/12/07 06:06:40;;;;;;;3.88;1.80;;;;;;;0.13;98.49;95195.91;4839215;29;20133;-42
2021/12/07 06:09:07;;;;;;;2.55;1.65;;;;;;;0.10;98.14;95189.31;4837427;29;20514;-42
2021/12/07 06:11:34;;;;;;;2.72;1.90;;;;;;;0.12;97.96;95192.47;4839196;29;20096;-42
2021/12/07 06:14:01;;;;;;;4.38;2.03;;;;;;;0.08;97.92;95186.13;4836380;29;20469;-42
2021/12/07 06:16:30;;;;;;;2.78;1.80;;;;;;;0.20;97.62;95181.22;4823883;29;20129;-43
2021/12/07 06:18:59;;;;;;;4.70;2.00;;;;;;;0.15;96.75;95194.56;4835632;29;20062;-48
2021/12/07 06:21:26;;;;;;;3.78;2.08;;;;;;;0.06;97.47;95167.00;4810962;29;20050;-44
2021/12/07 06:23:53;;;;;;;4.45;1.95;;;;;;;0.25;96.76;95187.53;4828116;29;20133;-44
2021/12/07 06:26:20;;;;;;;3.28;1.80;;;;;;;0.32;96.56;95190.66;4839928;29;20102;-45
2021/12/07 06:28:48;;;;;;;3.30;1.90;;;;;;;0.18;96.07;95201.19;4838081;29;20049;-44
2021/12/07 06:31:15;;;;;;;4.03;1.60;;;;;;;0.31;96.65;95202.38;4837871;29;20132;-44
2021/12/07 06:33:42;;;;;;;2.78;1.70;;;;;;;0.31;96.31;95210.34;4825950;29;20129;-44
2021/12/07 06:36:09;;;;;;;4.18;2.30;;;;;;;0.30;95.96;95206.13;4828440;29;20129;-44
2021/12/07 06:38:36;;;;;;;3.22;1.85;;;;;;;0.31;95.16;95213.81;4832104;29;20046;-46
2021/12/07 06:41:04;;;;;;;3.78;1.90;;;;;;;0.38;94.91;95216.13;4824083;29;20114;-45
2021/12/07 06:43:31;;;;;;;3.63;2.22;;;;;;;0.28;94.26;95217.03;4823107;29;20080;-43
2021/12/07 06:45:58;;;;;;;4.82;2.00;;;;;;;0.39;95.55;95220.34;4823809;29;20513;-43
2021/12/07 06:48:26;;;;;;;4.13;2.30;;;;;;;0.40;95.31;95230.72;4825901;29;20042;-44
2021/12/07 06:50:53;;;;;;;4.18;2.15;;;;;;;0.47;94.81;95214.41;4836676;29;20416;-43
2021/12/07 06:53:20;;;;;;;3.63;2.22;;;;;;;0.48;95.06;95223.97;4824793;29;20086;-43
2021/12/07 06:55:48;;;;;;;3.72;2.25;;;;;;;0.51;94.10;95223.41;4825043;29;20118;-45
2021/12/07 06:58:15;;;;;;;4.25;2.30;;;;;;;0.51;94.61;95236.72;4837990;29;20463;-43
2021/12/07 07:00:42;;;;;;;5.32;2.45;;;;;;;0.41;93.66;95242.94;4835803;29;20069;-44
2021/12/07 07:03:09;;;;;;;5.38;2.55;;;;;;;0.60;94.02;95256.31;4832746;29;20099;-45
2021/12/07 07:05:37;;;;;;;3.67;2.30;;;;;;;0.72;93.91;95255.09;4840451;29;20154;-42
2021/12/07 07:08:04;;;;;;;3.55;2.30;;;;;;;0.61;93.83;95251.75;4839053;29;20420;-43
2021/12/07 07:10:31;;;;;;;4.55;2.80;;;;;;;0.53;93.62;95258.53;4828583;29;20080;-43
2021/12/07 07:12:58;;;;;;;4.63;2.20;;;;;;;0.60;93.29;95256.31;4838313;29;20046;-44
2021/12/07 07:15:25;;;;;;;4.88;2.08;;;;;;;0.74;93.80;95259.03;4829515;29;20134;-41
2021/12/07 07:17:52;;;;;;;8.32;2.58;;;;;;;0.64;93.09;95261.84;4826841;29;20413;-42
2021/12/07 07:20:19;;;;;;;3.42;2.13;;;;;;;0.61;92.50;95263.19;4832366;29;20118;-41
2021/12/07 07:22:46;;;;;;;5.65;2.30;;;;;;;0.69;94.04;95270.56;4841068;29;20073;-43
2021/12/07 07:25:14;;;;;;;3.60;2.08;;;;;;;0.88;93.13;95277.81;4841086;29;20050;-45
2021/12/07 07:27:44;;;;;;;4.55;2.53;;;;;;;0.81;92.86;95278.13;4834482;29;20610;-47
2021/12/07 07:30:15;;;;;;;5.68;2.65;;;;;;;0.72;92.69;95279.06;4824775;29;20050;-43
2021/12/07 07:32:43;;;;;;;4.10;2.30;;;;;;;0.89;92.91;95284.69;4821315;29;20469;-46
2021/12/07 07:35:11;;;;;;;4.70;2.60;;;;;;;0.87;93.07;95281.53;4822620;29;20486;-43
2021/12/07 07:37:39;;;;;;;3.83;2.33;;;;;;;1.00;92.72;95296.78;4822093;29;20166;-43
2021/12/07 07:40:10;;;;;;;4.03;2.70;;;;;;;0.90;92.51;95296.94;4835801;29;20065;-47
2021/12/07 07:42:39;;;;;;;4.85;2.50;;;;;;;0.87;92.61;95300.16;4830680;29;20064;-42
2021/12/07 07:45:14;;;;;;;4.90;2.40;;;;;;;0.94;92.67;95308.59;4828819;29;20046;-41
2021/12/07 07:47:42;;;;;;;3.25;2.10;;;;;;;0.87;92.06;95302.81;4826876;29;20129;-45
2021/12/07 07:50:11;;;;;;;4.35;2.22;;;;;;;0.96;92.34;95314.44;4843842;29;20068;-45
2021/12/07 07:52:39;;;;;;;3.67;2.28;;;;;;;0.95;92.01;95304.09;4837292;29;20476;-43
2021/12/07 07:55:07;;;;;;;3.92;2.42;;;;;;;0.91;91.59;95309.97;4825820;29;20137;-43
2021/12/07 07:57:34;;;;;;;4.95;2.35;;;;;;;1.13;92.37;95312.06;4836175;29;20563;-46
2021/12/07 08:00:08;;;;;;;5.38;2.30;;;;;;;0.88;92.02;95325.75;4828589;29;20038;-43
2021/12/07 08:02:38;;;;;;;3.83;2.20;;;;;;;1.03;92.34;95320.19;4839040;29;20128;-45
2021/12/07 08:05:06;;;;;;;6.38;2.30;;;;;;;1.03;92.09;95322.06;4836547;29;20107;-42
2021/12/07 08:07:33;;;;;;;4.53;2.53;;;;;;;0.89;91.70;95325.44;4834061;29;20125;-43
2021/12/07 08:10:00;;;;;;;4.55;2.45;;;;;;;1.14;91.84;95324.31;4842537;29;20085;-43
2021/12/07 08:12:27;;;;;;;6.43;3.10;;;;;;;0.89;92.31;95322.00;4840608;29;20056;-44
2021/12/07 08:15:20;;;;;;;5.80;2.55;;;;;;;0.95;91.86;95328.84;5530950;23;20024;31
2021/12/07 08:17:47;;;;;;;4.18;2.53;;;;;;;1.04;91.61;95329.78;4799124;29;20092;-40
2021/12/07 08:20:14;;;;;;;3.75;2.40;;;;;;;1.12;91.14;95326.47;4809093;29;20512;-41
2021/12/07 08:22:41;;;;;;;5.78;2.78;;;;;;;1.03;90.60;95330.06;4812340;29;20494;-42
2021/12/07 08:25:09;;;;;;;3.80;2.80;;;;;;;0.80;90.22;95318.38;4806283;29;20129;-40
2021/12/07 08:27:36;;;;;;;3.65;2.25;;;;;;;0.94;90.09;95335.22;4808607;29;20070;-41
2021/12/07 08:30:05;;;;;;;4.57;2.72;;;;;;;0.87;90.26;95326.78;4813503;29;20153;-41
2021/12/07 08:32:32;;;;;;;4.72;2.63;;;;;;;0.95;90.50;95341.38;4776506;29;20054;-40
2021/12/07 08:34:59;;;;;;;4.60;2.65;;;;;;;0.88;90.35;95347.03;4817111;29;20133;-41
2021/12/07 08:37:26;;;;;;;3.83;2.67;;;;;;;0.99;89.95;95348.50;4815647;29;20474;-41
2021/12/07 08:39:53;;;;;;;4.93;2.70;;;;;;;0.98;90.26;95346.91;4811470;29;20055;-43
2021/12/07 08:42:20;;;;;;;7.55;3.10;;;;;;;1.09;90.07;95350.22;4816610;29;20101;-41
2021/12/07 08:44:47;;;;;;;5.05;2.63;;;;;;;1.05;90.47;95342.03;4807540;29;20131;-40
2021/12/07 08:47:14;;;;;;;3.28;2.30;;;;;;;1.04;90.04;95339.63;4805227;29;20117;-40
2021/12/07 08:50:00;;;;;;;4.65;2.50;;;;;;;1.06;90.71;95338.28;4811960;29;20042;-41
2021/12/07 08:52:27;;;;;;;3.80;2.60;;;;;;;1.04;90.55;95337.78;4813568;29;20149;-40
2021/12/07 09:00:19;;;;;;;5.22;2.40;;;;;;;1.27;90.14;95346.00;4812635;29;20051;-40
2021/12/07 09:02:47;;;;;;;4.95;2.60;;;;;;;1.38;89.91;95350.13;4799200;29;20059;-40
2021/12/07 09:05:14;;;;;;;6.38;2.85;;;;;;;1.34;89.59;95357.91;4800681;29;20062;-42
2021/12/07 09:07:41;;;;;;;5.10;2.78;;;;;;;1.27;89.28;95354.81;4806075;29;20442;-40
2021/12/07 09:10:08;;;;;;;5.38;4.00;;;;;;;1.41;89.59;95365.53;4812695;29;20624;-41
2021/12/07 09:12:35;;;;;;;3.35;2.35;;;;;;;1.24;89.78;95365.25;4810213;29;20082;-43
2021/12/07 09:15:03;;;;;;;3.83;2.03;;;;;;;1.46;89.15;95373.44;4805516;29;20053;-41
2021/12/07 09:17:30;;;;;;;6.78;2.42;;;;;;;1.57;89.10;95368.78;4804694;29;20402;-41
2021/12/07 09:19:57;;;;;;;4.07;2.45;;;;;;;1.44;89.19;95372.19;4812282;29;20051;-42
2021/12/07 09:22:25;;;;;;;3.30;2.50;;;;;;;1.43;88.13;95374.06;4805424;29;20047;-42
2021/12/07 09:24:54;;;;;;;7.18;2.85;;;;;;;1.52;88.75;95388.28;4805366;29;20137;-42
2021/12/07 09:27:21;;;;;;;4.40;2.45;;;;;;;1.16;89.42;95386.09;4805946;29;20050;-41
2021/12/07 09:29:48;;;;;;;5.68;3.10;;;;;;;1.39;89.62;95389.81;4824891;29;20134;-42
2021/12/07 09:32:15;;;;;;;5.35;2.60;;;;;;;1.32;89.90;95392.03;4803565;29;20085;-43
2021/12/07 09:34:42;;;;;;;5.45;3.10;;;;;;;1.09;90.06;95391.00;4820060;29;20176;-42
2021/12/07 09:37:09;;;;;;;6.28;2.50;;;;;;;1.10;90.47;95392.56;4820256;29;20082;-41
2021/12/07 09:39:36;;;;;;;4.82;2.85;;;;;;;1.34;90.02;95394.44;4810969;29;20055;-39
2021/12/07 09:42:03;;;;;;;7.35;2.80;;;;;;;1.44;89.59;95394.28;4805029;29;20130;-42
2021/12/07 09:44:31;;;;;;;4.57;2.80;;;;;;;1.52;89.25;95393.63;4809284;29;20077;-40
2021/12/07 09:46:58;;;;;;;4.95;2.58;;;;;;;1.59;88.25;95387.94;4808322;29;20051;-41
2021/12/07 09:49:25;;;;;;;4.72;2.67;;;;;;;1.58;87.93;95384.47;4802879;29;20108;-40
2021/12/07 09:51:52;;;;;;;6.05;2.80;;;;;;;1.61;88.06;95381.25;4806498;29;20130;-39
2021/12/07 09:54:19;;;;;;;5.65;2.95;;;;;;;1.52;87.34;95393.63;4811280;29;20055;-40
2021/12/07 09:56:47;;;;;;;6.25;3.03;;;;;;;1.57;87.92;95393.56;4805756;29;20129;-39
2021/12/07 09:59:14;;;;;;;7.45;2.78;;;;;;;1.55;87.93;95395.72;4806913;29;20071;-40
2021/12/07 10:01:42;;;;;;;4.97;2.60;;;;;;;1.58;87.23;95397.03;4807266;29;20047;-39
2021/12/07 10:04:10;;;;;;;6.43;2.90;;;;;;;1.63;87.53;95391.63;4806199;29;20058;-39
2021/12/07 10:06:37;;;;;;;7.53;2.80;;;;;;;1.77;87.39;95383.69;4804666;29;20129;-40
2021/12/07 10:09:05;;;;;;;6.43;2.60;;;;;;;1.59;85.99;95383.44;4803371;29;20053;-40
2021/12/07 10:11:33;;;;;;;3.60;2.55;;;;;;;1.80;87.26;95385.78;4803489;29;20043;-42
2021/12/07 10:14:00;;;;;;;5.50;2.05;;;;;;;1.87;86.46;95386.22;4804143;29;20058;-40
2021/12/07 10:16:28;;;;;;;6.65;2.58;;;;;;;1.87;86.58;95379.00;4799492;29;20394;-41
2021/12/07 10:18:57;;;;;;;3.40;2.28;;;;;;;1.68;85.79;95388.88;4807270;29;20112;-42
2021/12/07 10:21:28;;;;;;;5.60;2.50;;;;;;;1.76;86.06;95371.47;4788897;29;20058;-40
2021/12/07 10:24:02;;;;;;;2.85;1.92;;;;;;;1.82;85.21;95370.28;4806451;29;20134;-40
2021/12/07 10:26:35;;;;;;;4.60;2.45;;;;;;;1.90;85.43;95371.50;4812062;29;20475;-43
2021/12/07 10:29:10;;;;;;;5.32;2.40;;;;;;;1.90;83.89;95371.50;4816702;29;20592;-41
2021/12/07 10:32:05;;;;;;;5.35;2.50;;;;;;;1.98;83.23;95385.00;4813020;29;20042;-40
2021/12/07 10:34:36;;;;;;;4.65;2.00;;;;;;;2.26;83.35;95380.50;4810626;29;20521;-42
2021/12/07 10:37:14;;;;;;;4.07;2.17;;;;;;;2.26;83.64;95385.84;4811463;29;20083;-41
2021/12/07 10:39:51;;;;;;;4.90;2.33;;;;;;;2.45;82.83;95377.00;4805789;29;20083;-40
2021/12/07 10:42:21;;;;;;;4.13;2.13;;;;;;;2.24;80.67;95377.38;4803716;29;20043;-40
2021/12/07 10:45:08;;;;;;;5.65;2.08;;;;;;;2.57;81.89;95383.47;4802614;29;20075;-40
2021/12/07 10:47:36;;;;;;;5.25;2.20;;;;;;;2.70;80.48;95384.56;4803288;29;20079;-40
2021/12/07 10:50:13;;;;;;;3.28;1.83;;;;;;;2.73;79.13;95383.16;4809544;29;20077;-41
2021/12/07 10:52:42;;;;;;;6.63;2.00;;;;;;;2.71;79.98;95382.69;4804040;29;20074;-41
2021/12/07 10:55:15;;;;;;;4.57;1.88;;;;;;;2.66;79.54;95385.44;4800526;29;20074;-40
2021/12/07 10:57:48;;;;;;;3.40;1.83;;;;;;;2.73;78.78;95388.50;4807453;29;20058;-40
2021/12/07 11:00:20;;;;;;;3.35;1.67;;;;;;;2.59;78.79;95388.50;4802622;29;20115;-40
2021/12/07 11:02:50;;;;;;;4.57;2.10;;;;;;;2.63;79.62;95389.47;4802618;29;20111;-40
2021/12/07 11:05:21;;;;;;;6.47;2.22;;;;;;;2.67;79.12;95400.41;4800414;29;20059;-40
2021/12/07 11:07:48;;;;;;;4.40;1.88;;;;;;;2.66;79.57;95390.78;4800117;29;20148;-41
2021/12/07 11:10:21;;;;;;;7.05;1.90;;;;;;;2.51;78.93;95399.88;4817713;29;20061;-41
2021/12/07 11:13:13;;;;;;;;;;;;;;;2.48;78.62;95406.59;4799280;29;20051;-40
2021/12/07 11:15:53;;;;;;;6.15;1.90;;;;;;;2.55;79.63;95393.63;4797881;29;19951;-40
2021/12/07 11:18:28;;;;;;;3.70;1.67;;;;;;;2.75;78.44;95397.81;4816246;29;20074;-41
2021/12/07 11:21:01;;;;;;;5.95;2.05;;;;;;;2.60;79.03;95397.28;4807509;29;20421;-41
2021/12/07 11:23:34;;;;;;;4.53;1.80;;;;;;;2.55;78.94;95372.28;4805642;29;20501;-43
2021/12/07 11:31:33;;;;;;;3.08;1.45;;;;;;;2.69;77.20;95374.94;4807109;29;20059;-41
2021/12/07 11:34:16;;;;;;;3.65;1.60;;;;;;;2.54;77.92;95376.03;4808964;29;20047;-40
2021/12/07 11:37:05;;;;;;;3.08;1.50;;;;;;;2.72;76.40;95373.56;4802839;29;20134;-39
2021/12/07 11:39:40;;;;;;;4.25;1.70;;;;;;;2.68;77.42;95380.59;4813952;29;20078;-42
2021/12/07 11:42:11;;;;;;;2.67;1.30;;;;;;;2.58;77.77;95376.25;4812084;29;20146;-42
2021/12/07 11:44:47;;;;;;;3.42;1.60;;;;;;;2.71;78.22;95374.69;4807310;29;20053;-40
2021/12/07 11:47:14;;;;;;;5.05;1.40;;;;;;;2.78;77.26;95385.75;4806021;29;20129;-41
2021/12/07 11:49:41;;;;;;;4.10;1.58;;;;;;;2.69;76.92;95376.84;4804911;29;20413;-40
2021/12/07 11:52:09;;;;;;;2.85;1.35;;;;;;;2.51;77.68;95379.28;4819523;29;20470;-41
2021/12/07 11:54:40;;;;;;;3.80;2.10;;;;;;;2.49;78.15;95370.00;4803255;29;20492;-41
2021/12/07 11:57:12;;;;;;;4.30;1.55;;;;;;;2.87;76.96;95359.16;4809707;29;20141;-42
2021/12/07 11:59:41;;;;;;;5.53;1.80;;;;;;;2.89;76.51;95373.78;4819123;29;20129;-47
2021/12/07 12:02:12;;;;;;;;;;;;;;;3.20;76.10;95363.28;4808632;29;20043;-40
2021/12/07 12:04:42;;;;;;;2.63;1.63;;;;;;;3.02;75.75;95366.84;4812035;29;19925;-41
2021/12/07 12:07:10;;;;;;;3.25;1.52;;;;;;;2.73;76.31;95367.97;4806529;29;20685;-42
2021/12/07 12:09:49;;;;;;;4.20;1.60;;;;;;;2.60;75.77;95365.25;4801978;29;20063;-42
2021/12/07 12:12:25;;;;;;;4.50;1.95;;;;;;;2.72;76.79;95387.72;4801998;29;20063;-41
2021/12/07 12:15:03;;;;;;;6.35;2.25;;;;;;;2.75;76.08;95384.47;4799607;29;20058;-41
2021/12/07 12:17:51;;;;;;;3.97;1.52;;;;;;;2.57;76.77;95369.31;4814074;29;20078;-40
2021/12/07 12:20:42;;;;;;;4.72;1.50;;;;;;;2.55;75.74;95371.47;4806258;29;20047;-39
2021/12/07 12:23:29;;;;;;;3.35;1.30;;;;;;;3.02;75.88;95367.66;4810545;29;20058;-39
2021/12/07 12:25:59;;;;;;;3.25;1.40;;;;;;;3.85;72.63;95364.81;4798961;29;20457;-40
2021/12/07 12:28:34;;;;;;;3.75;1.80;;;;;;;4.13;70.40;95365.50;4804180;29;20581;-40
2021/12/07 12:31:04;;;;;;;3.40;1.45;;;;;;;3.75;70.45;95357.03;4805367;29;20051;-40
2021/12/07 12:33:57;;;;;;;5.13;1.65;;;;;;;3.43;72.65;95342.75;4792558;29;20468;-40
2021/12/07 12:36:25;;;;;;;5.20;1.75;;;;;;;3.10;74.39;95344.78;4804897;29;20653;-40
2021/12/07 12:39:07;;;;;;;2.70;1.60;;;;;;;3.18;73.90;95354.75;4817297;29;20496;-40
2021/12/07 12:41:34;;;;;;;1.52;0.98;;;;;;;2.76;73.88;95353.19;4804916;29;20043;-40
2021/12/07 12:44:11;;;;;;;5.10;1.88;;;;;;;3.12;73.78;95358.66;4805613;29;20130;-40
2021/12/07 12:46:38;;;;;;;5.38;1.85;;;;;;;3.21;72.13;95346.16;4815541;29;20053;-39
2021/12/07 12:49:10;;;;;;;3.35;2.30;;;;;;;2.99;73.10;95344.22;4817705;29;20524;-39
2021/12/07 12:51:47;;;;;;;9.67;2.50;;;;;;;3.35;73.66;95326.59;4810184;29;20510;-42
2021/12/07 12:54:15;;;;;;;4.00;1.40;;;;;;;3.56;72.96;95333.09;4820012;29;20066;-40
2021/12/07 12:56:42;;;;;;;6.38;2.10;;;;;;;3.41;71.68;95334.25;4792731;29;20134;-40
2021/12/07 12:59:12;;;;;;;5.15;1.65;;;;;;;3.51;72.90;95331.34;4806755;29;20057;-39
2021/12/07 13:01:44;;;;;;;5.32;1.40;;;;;;;3.20;72.52;95327.75;4806820;29;20039;-40
2021/12/07 13:04:24;;;;;;;4.28;1.63;;;;;;;3.15;74.40;95335.84;4802398;29;20057;-41
2021/12/07 13:09:42;;;;;;;7.20;1.80;;;;;;;3.20;73.85;95327.75;4801492;29;20989;-40
2021/12/07 13:12:19;;;;;;;3.38;1.55;;;;;;;3.30;73.27;95324.84;4804322;29;20082;-40
2021/12/07 13:14:49;;;;;;;5.22;1.60;;;;;;;3.38;72.74;95328.69;4808540;29;20157;-40
2021/12/07 13:17:39;;;;;;;2.92;1.33;;;;;;;2.99;72.12;95322.00;4803400;29;20082;-40
2021/12/07 13:20:14;;;;;;;4.53;2.40;;;;;;;3.07;73.68;95337.38;4802249;29;20133;-41
2021/12/07 13:23:12;;;;;;;3.75;1.52;;;;;;;3.09;73.52;95326.34;4807230;29;20117;-40
2021/12/07 13:25:51;;;;;;;2.95;1.27;;;;;;;3.15;73.59;95335.84;4816699;29;20136;-40
2021/12/07 13:28:22;;;;;;;4.57;1.48;;;;;;;3.01;71.93;95333.22;4806074;29;20145;-40
2021/12/07 13:30:54;;;;;;;4.30;1.52;;;;;;;3.00;72.93;95327.06;4809351;29;20065;-41
2021/12/07 13:33:31;;;;;;;4.28;1.45;;;;;;;2.89;72.85;95331.03;4809240;29;20082;-40
2021/12/07 13:35:59;;;;;;;5.68;1.80;;;;;;;2.88;72.61;95332.13;4805176;29;20089;-41
2021/12/07 13:38:31;;;;;;;5.40;1.27;;;;;;;2.86;73.49;95328.16;4813232;29;20050;-42
2021/12/07 13:41:13;;;;;;;3.45;1.35;;;;;;;2.33;74.29;95310.72;4806454;29;20051;-41
2021/12/07 13:43:47;;;;;;;5.68;1.70;;;;;;;2.75;73.81;95322.22;4793428;29;20051;-43
2021/12/07 13:46:18;;;;;;;;;;;;;;;2.52;74.73;95319.44;4799046;29;20059;-42